Weather at Milk River (Madge) Airport

Public forecast

Using degrees Celsius for public forecast. Weather courtesy of forecast.io.

Closest aviation weather report (METAR) to Milk River (Madge) Airport

Closest report is Cut Bank International Airport, 34.2 nm (63.4 km) SSW.

2024/07/15 13:56 (retrieved 35 minutes ago)

KCTB 151356Z AUTO 14006KT 10SM CLR 16/12 A3005 RMK AO2 SLP146 T01610117

Closest aviation forecast (TAF) to Milk River (Madge) Airport

Closest forecast is Cut Bank International Airport, 34.2 nm (63.4 km) SSW.

2024/07/15 12:39 (retrieved 2 hours ago)

TAF KCTB 151136Z 1512/1612 16008KT P6SM SCT090 FM151800 25011KT P6SM SCT080 SCT180 FM152100 32013G21KT P6SM BKN070 BKN150 FM160300 01008KT P6SM SCT080 BKN120